sensor_id;sensor_type;location;lat;lon;timestamp;pressure;altitude;pressure_sealevel;temperature;humidity
48862;BME280;34681;49.188;-0.374;2023-07-13T00:02:18;101522.03;;;21.93;54.39
48862;BME280;34681;49.188;-0.374;2023-07-13T00:04:43;101521.91;;;22.01;54.36
48862;BME280;34681;49.188;-0.374;2023-07-13T00:07:08;101517.97;;;22.17;53.55
48862;BME280;34681;49.188;-0.374;2023-07-13T00:09:34;101514.47;;;22.08;53.65
48862;BME280;34681;49.188;-0.374;2023-07-13T00:12:00;101515.72;;;22.05;53.71
48862;BME280;34681;49.188;-0.374;2023-07-13T00:14:27;101517.03;;;21.81;54.55
48862;BME280;34681;49.188;-0.374;2023-07-13T00:16:53;101514.72;;;21.85;54.75
48862;BME280;34681;49.188;-0.374;2023-07-13T00:19:20;101516.69;;;21.91;54.25
48862;BME280;34681;49.188;-0.374;2023-07-13T00:21:45;101518.50;;;22.05;53.87
48862;BME280;34681;49.188;-0.374;2023-07-13T00:24:12;101514.72;;;21.85;54.36
48862;BME280;34681;49.188;-0.374;2023-07-13T00:26:39;101522.47;;;21.90;53.86
48862;BME280;34681;49.188;-0.374;2023-07-13T00:29:04;101517.91;;;21.82;54.31
48862;BME280;34681;49.188;-0.374;2023-07-13T00:31:33;101524.47;;;21.74;54.58
48862;BME280;34681;49.188;-0.374;2023-07-13T00:33:59;101518.84;;;21.68;54.55
48862;BME280;34681;49.188;-0.374;2023-07-13T00:36:25;101518.53;;;21.77;54.35
48862;BME280;34681;49.188;-0.374;2023-07-13T00:38:51;101514.25;;;21.53;55.35
48862;BME280;34681;49.188;-0.374;2023-07-13T00:41:17;101509.03;;;21.44;55.57
48862;BME280;34681;49.188;-0.374;2023-07-13T00:43:43;101521.25;;;21.49;55.67
48862;BME280;34681;49.188;-0.374;2023-07-13T00:46:13;101516.88;;;21.62;55.82
48862;BME280;34681;49.188;-0.374;2023-07-13T00:48:40;101519.47;;;21.63;55.11
48862;BME280;34681;49.188;-0.374;2023-07-13T00:51:06;101508.97;;;21.65;55.33
48862;BME280;34681;49.188;-0.374;2023-07-13T00:53:32;101508.84;;;21.73;55.03
48862;BME280;34681;49.188;-0.374;2023-07-13T00:55:59;101513.97;;;21.70;55.17
48862;BME280;34681;49.188;-0.374;2023-07-13T00:58:25;101507.25;;;21.64;55.68
48862;BME280;34681;49.188;-0.374;2023-07-13T01:00:51;101509.47;;;21.69;55.42
48862;BME280;34681;49.188;-0.374;2023-07-13T01:03:18;101506.69;;;21.69;55.74
48862;BME280;34681;49.188;-0.374;2023-07-13T01:05:43;101516.59;;;21.78;55.37
48862;BME280;34681;49.188;-0.374;2023-07-13T01:08:12;101518.75;;;21.82;55.37
48862;BME280;34681;49.188;-0.374;2023-07-13T01:10:37;101514.41;;;21.73;55.42
48862;BME280;34681;49.188;-0.374;2023-07-13T01:13:09;101516.41;;;21.79;55.38
48862;BME280;34681;49.188;-0.374;2023-07-13T01:18:00;101519.13;;;21.73;55.71
48862;BME280;34681;49.188;-0.374;2023-07-13T01:20:26;101511.81;;;21.72;56.17
48862;BME280;34681;49.188;-0.374;2023-07-13T01:22:51;101520.63;;;21.75;55.44
48862;BME280;34681;49.188;-0.374;2023-07-13T01:25:17;101520.25;;;21.78;55.49
48862;BME280;34681;49.188;-0.374;2023-07-13T01:27:43;101514.66;;;21.78;55.72
48862;BME280;34681;49.188;-0.374;2023-07-13T01:30:08;101518.84;;;21.68;56.26
48862;BME280;34681;49.188;-0.374;2023-07-13T01:32:34;101518.25;;;21.72;55.96
48862;BME280;34681;49.188;-0.374;2023-07-13T01:34:59;101511.53;;;21.88;55.77
48862;BME280;34681;49.188;-0.374;2023-07-13T01:37:26;101519.97;;;21.73;56.45
48862;BME280;34681;49.188;-0.374;2023-07-13T01:39:52;101515.47;;;21.72;56.31
48862;BME280;34681;49.188;-0.374;2023-07-13T01:42:18;101515.81;;;21.91;56.11
48862;BME280;34681;49.188;-0.374;2023-07-13T01:44:44;101507.88;;;21.87;56.03
48862;BME280;34681;49.188;-0.374;2023-07-13T01:47:10;101523.97;;;21.92;55.99
48862;BME280;34681;49.188;-0.374;2023-07-13T01:49:35;101527.81;;;21.91;56.07
48862;BME280;34681;49.188;-0.374;2023-07-13T01:52:02;101520.69;;;21.82;56.04
48862;BME280;34681;49.188;-0.374;2023-07-13T01:54:28;101522.94;;;21.93;56.08
48862;BME280;34681;49.188;-0.374;2023-07-13T01:56:53;101506.66;;;21.97;56.14
48862;BME280;34681;49.188;-0.374;2023-07-13T01:59:18;101523.13;;;21.92;55.95
48862;BME280;34681;49.188;-0.374;2023-07-13T02:01:44;101513.84;;;21.84;56.61
48862;BME280;34681;49.188;-0.374;2023-07-13T02:04:09;101519.88;;;21.88;56.57
48862;BME280;34681;49.188;-0.374;2023-07-13T02:06:35;101519.81;;;21.81;56.86
48862;BME280;34681;49.188;-0.374;2023-07-13T02:09:01;101521.03;;;22.00;56.47
48862;BME280;34681;49.188;-0.374;2023-07-13T02:11:26;101520.53;;;22.11;56.01
48862;BME280;34681;49.188;-0.374;2023-07-13T02:13:58;101515.88;;;22.19;55.69
48862;BME280;34681;49.188;-0.374;2023-07-13T02:16:23;101518.44;;;22.20;55.62
48862;BME280;34681;49.188;-0.374;2023-07-13T02:18:49;101524.56;;;22.09;56.42
48862;BME280;34681;49.188;-0.374;2023-07-13T02:21:17;101523.75;;;22.15;56.06
48862;BME280;34681;49.188;-0.374;2023-07-13T02:23:43;101522.03;;;22.14;56.22
48862;BME280;34681;49.188;-0.374;2023-07-13T02:26:08;101517.97;;;22.17;56.38
48862;BME280;34681;49.188;-0.374;2023-07-13T02:28:33;101527.25;;;22.24;56.16
48862;BME280;34681;49.188;-0.374;2023-07-13T02:33:34;101513.09;;;22.25;55.76
48862;BME280;34681;49.188;-0.374;2023-07-13T02:35:59;101517.81;;;22.25;55.98
48862;BME280;34681;49.188;-0.374;2023-07-13T02:38:25;101512.44;;;22.23;56.14
48862;BME280;34681;49.188;-0.374;2023-07-13T02:40:51;101515.16;;;22.10;56.34
48862;BME280;34681;49.188;-0.374;2023-07-13T02:43:16;101514.56;;;22.21;56.34
48862;BME280;34681;49.188;-0.374;2023-07-13T02:45:45;101509.94;;;22.07;56.81
48862;BME280;34681;49.188;-0.374;2023-07-13T02:48:11;101510.44;;;22.10;56.45
48862;BME280;34681;49.188;-0.374;2023-07-13T02:50:36;101512.38;;;22.10;56.57
48862;BME280;34681;49.188;-0.374;2023-07-13T02:53:01;101515.38;;;22.15;56.43
48862;BME280;34681;49.188;-0.374;2023-07-13T02:55:27;101517.28;;;22.08;56.76
48862;BME280;34681;49.188;-0.374;2023-07-13T02:57:52;101524.69;;;22.01;56.91
48862;BME280;34681;49.188;-0.374;2023-07-13T03:00:19;101532.19;;;22.00;57.23
48862;BME280;34681;49.188;-0.374;2023-07-13T03:02:45;101526.47;;;22.08;57.01
48862;BME280;34681;49.188;-0.374;2023-07-13T03:05:11;101523.75;;;22.15;56.66
48862;BME280;34681;49.188;-0.374;2023-07-13T03:07:38;101519.69;;;21.90;57.89
48862;BME280;34681;49.188;-0.374;2023-07-13T03:10:03;101522.78;;;22.01;57.16
48862;BME280;34681;49.188;-0.374;2023-07-13T03:12:29;101517.38;;;22.00;57.42
48862;BME280;34681;49.188;-0.374;2023-07-13T03:14:54;101517.00;;;22.03;57.34
48862;BME280;34681;49.188;-0.374;2023-07-13T03:17:19;101521.91;;;22.01;57.67
48862;BME280;34681;49.188;-0.374;2023-07-13T03:19:45;101517.97;;;21.88;57.86
48862;BME280;34681;49.188;-0.374;2023-07-13T03:22:15;101509.00;;;21.93;57.98
48862;BME280;34681;49.188;-0.374;2023-07-13T03:24:40;101507.53;;;21.97;57.91
48862;BME280;34681;49.188;-0.374;2023-07-13T03:27:06;101512.44;;;21.95;58.10
48862;BME280;34681;49.188;-0.374;2023-07-13T03:29:31;101526.53;;;21.87;58.72
48862;BME280;34681;49.188;-0.374;2023-07-13T03:31:57;101528.94;;;21.97;58.08
48862;BME280;34681;49.188;-0.374;2023-07-13T03:34:22;101515.72;;;22.05;57.65
48862;BME280;34681;49.188;-0.374;2023-07-13T03:36:47;101525.97;;;21.98;58.02
48862;BME280;34681;49.188;-0.374;2023-07-13T03:39:13;101524.09;;;22.05;57.46
48862;BME280;34681;49.188;-0.374;2023-07-13T03:41:38;101527.03;;;21.97;57.99
48862;BME280;34681;49.188;-0.374;2023-07-13T03:44:04;101526.06;;;21.83;58.76
48862;BME280;34681;49.188;-0.374;2023-07-13T03:46:29;101532.44;;;21.77;59.06
48862;BME280;34681;49.188;-0.374;2023-07-13T03:48:55;101531.19;;;21.80;58.80
48862;BME280;34681;49.188;-0.374;2023-07-13T03:51:21;101527.19;;;21.89;58.56
48862;BME280;34681;49.188;-0.374;2023-07-13T03:53:47;101531.81;;;21.82;58.71
48862;BME280;34681;49.188;-0.374;2023-07-13T03:56:13;101529.69;;;21.84;58.63
48862;BME280;34681;49.188;-0.374;2023-07-13T03:58:43;101527.59;;;21.86;58.76
48862;BME280;34681;49.188;-0.374;2023-07-13T04:01:10;101534.25;;;21.92;58.54
48862;BME280;34681;49.188;-0.374;2023-07-13T04:03:37;101533.34;;;21.84;58.76
48862;BME280;34681;49.188;-0.374;2023-07-13T04:06:04;101532.47;;;21.84;58.53
48862;BME280;34681;49.188;-0.374;2023-07-13T04:08:35;101538.16;;;21.97;58.33
48862;BME280;34681;49.188;-0.374;2023-07-13T04:11:02;101542.69;;;21.98;58.20
48862;BME280;34681;49.188;-0.374;2023-07-13T04:13:28;101546.13;;;22.00;57.79
48862;BME280;34681;49.188;-0.374;2023-07-13T04:15:54;101538.16;;;21.97;57.85
48862;BME280;34681;49.188;-0.374;2023-07-13T04:18:19;101541.22;;;22.02;57.48
48862;BME280;34681;49.188;-0.374;2023-07-13T04:20:49;101542.03;;;21.96;57.98
48862;BME280;34681;49.188;-0.374;2023-07-13T04:23:16;101539.38;;;21.88;58.14
48862;BME280;34681;49.188;-0.374;2023-07-13T04:25:48;101540.69;;;21.92;58.05
48862;BME280;34681;49.188;-0.374;2023-07-13T04:28:19;101554.03;;;21.97;57.96
48862;BME280;34681;49.188;-0.374;2023-07-13T04:30:44;101552.97;;;21.98;57.79
48862;BME280;34681;49.188;-0.374;2023-07-13T04:33:10;101552.31;;;21.96;57.97
48862;BME280;34681;49.188;-0.374;2023-07-13T04:35:36;101552.69;;;21.93;58.14
48862;BME280;34681;49.188;-0.374;2023-07-13T04:38:02;101557.09;;;22.02;57.58
48862;BME280;34681;49.188;-0.374;2023-07-13T04:40:28;101561.47;;;22.11;57.40
48862;BME280;34681;49.188;-0.374;2023-07-13T04:42:54;101558.13;;;22.01;57.88
48862;BME280;34681;49.188;-0.374;2023-07-13T04:45:20;101558.31;;;21.99;57.80
48862;BME280;34681;49.188;-0.374;2023-07-13T04:47:45;101574.13;;;21.92;58.29
48862;BME280;34681;49.188;-0.374;2023-07-13T04:50:12;101577.97;;;21.91;58.39
48862;BME280;34681;49.188;-0.374;2023-07-13T04:52:43;101569.75;;;21.83;58.90
48862;BME280;34681;49.188;-0.374;2023-07-13T04:55:09;101574.81;;;21.94;58.53
48862;BME280;34681;49.188;-0.374;2023-07-13T04:57:34;101574.53;;;21.89;58.55
48862;BME280;34681;49.188;-0.374;2023-07-13T05:00:00;101572.63;;;21.90;58.51
48862;BME280;34681;49.188;-0.374;2023-07-13T05:02:26;101577.13;;;21.91;58.42
48862;BME280;34681;49.188;-0.374;2023-07-13T05:04:53;101575.59;;;21.88;58.73
48862;BME280;34681;49.188;-0.374;2023-07-13T05:07:18;101578.38;;;21.88;58.54
48862;BME280;34681;49.188;-0.374;2023-07-13T05:09:44;101580.25;;;21.81;59.16
48862;BME280;34681;49.188;-0.374;2023-07-13T05:12:09;101577.31;;;22.10;57.68
48862;BME280;34681;49.188;-0.374;2023-07-13T05:14:35;101572.66;;;21.96;58.51
48862;BME280;34681;49.188;-0.374;2023-07-13T05:17:00;101583.16;;;21.94;58.36
48862;BME280;34681;49.188;-0.374;2023-07-13T05:19:26;101585.75;;;21.96;58.64
48862;BME280;34681;49.188;-0.374;2023-07-13T05:21:51;101591.31;;;21.96;58.94
48862;BME280;34681;49.188;-0.374;2023-07-13T05:24:17;101591.44;;;22.09;58.05
48862;BME280;34681;49.188;-0.374;2023-07-13T05:26:43;101597.22;;;22.07;58.56
48862;BME280;34681;49.188;-0.374;2023-07-13T05:29:08;101586.53;;;22.11;58.31
48862;BME280;34681;49.188;-0.374;2023-07-13T05:31:34;101597.06;;;22.15;58.24
48862;BME280;34681;49.188;-0.374;2023-07-13T05:33:59;101595.81;;;22.18;57.90
48862;BME280;34681;49.188;-0.374;2023-07-13T05:36:24;101595.81;;;22.18;58.13
48862;BME280;34681;49.188;-0.374;2023-07-13T05:38:50;101587.31;;;22.26;57.81
48862;BME280;34681;49.188;-0.374;2023-07-13T05:41:15;101594.41;;;22.29;57.81
48862;BME280;34681;49.188;-0.374;2023-07-13T05:43:40;101589.25;;;22.32;57.62
48862;BME280;34681;49.188;-0.374;2023-07-13T05:46:06;101586.47;;;22.32;57.44
48862;BME280;34681;49.188;-0.374;2023-07-13T05:48:31;101585.38;;;22.27;57.90
48862;BME280;34681;49.188;-0.374;2023-07-13T05:50:57;101584.38;;;22.41;57.30
48862;BME280;34681;49.188;-0.374;2023-07-13T05:53:22;101591.81;;;22.27;57.71
48862;BME280;34681;49.188;-0.374;2023-07-13T05:55:48;101593.59;;;22.41;57.38
48862;BME280;34681;49.188;-0.374;2023-07-13T05:58:16;101589.19;;;22.54;57.07
48862;BME280;34681;49.188;-0.374;2023-07-13T06:00:42;101589.78;;;22.42;57.44
48862;BME280;34681;49.188;-0.374;2023-07-13T06:03:07;101597.94;;;22.44;57.62
48862;BME280;34681;49.188;-0.374;2023-07-13T06:05:34;101597.09;;;22.50;57.28
48862;BME280;34681;49.188;-0.374;2023-07-13T06:08:00;101594.72;;;22.47;57.56
48862;BME280;34681;49.188;-0.374;2023-07-13T06:10:25;101601.88;;;22.56;57.45
48862;BME280;34681;49.188;-0.374;2023-07-13T06:12:51;101608.56;;;22.62;57.17
48862;BME280;34681;49.188;-0.374;2023-07-13T06:15:16;101613.38;;;22.81;56.72
48862;BME280;34681;49.188;-0.374;2023-07-13T06:17:42;101611.41;;;22.75;56.78
48862;BME280;34681;49.188;-0.374;2023-07-13T06:20:07;101611.81;;;22.72;56.83
48862;BME280;34681;49.188;-0.374;2023-07-13T06:22:33;101624.44;;;22.61;57.09
48862;BME280;34681;49.188;-0.374;2023-07-13T06:24:58;101634.25;;;22.57;57.47
48862;BME280;34681;49.188;-0.374;2023-07-13T06:27:24;101626.38;;;22.61;57.53
48862;BME280;34681;49.188;-0.374;2023-07-13T06:29:49;101623.78;;;22.66;57.60
48862;BME280;34681;49.188;-0.374;2023-07-13T06:32:14;101632.63;;;22.69;57.40
48862;BME280;34681;49.188;-0.374;2023-07-13T06:34:40;101634.78;;;22.74;57.05
48862;BME280;34681;49.188;-0.374;2023-07-13T06:37:05;101634.09;;;22.65;57.34
48862;BME280;34681;49.188;-0.374;2023-07-13T06:39:31;101633.28;;;22.71;57.76
48862;BME280;34681;49.188;-0.374;2023-07-13T06:41:57;101640.88;;;22.84;57.18
48862;BME280;34681;49.188;-0.374;2023-07-13T06:44:22;101643.72;;;22.91;57.02
48862;BME280;34681;49.188;-0.374;2023-07-13T06:46:47;101647.78;;;22.88;57.21
48862;BME280;34681;49.188;-0.374;2023-07-13T06:49:13;101655.13;;;22.96;56.92
48862;BME280;34681;49.188;-0.374;2023-07-13T06:51:38;101653.63;;;22.93;57.12
48862;BME280;34681;49.188;-0.374;2023-07-13T06:54:03;101663.97;;;23.06;56.95
48862;BME280;34681;49.188;-0.374;2023-07-13T06:56:29;101661.66;;;23.16;56.68
48862;BME280;34681;49.188;-0.374;2023-07-13T06:58:55;101667.66;;;23.13;56.96
48862;BME280;34681;49.188;-0.374;2023-07-13T07:01:20;101672.66;;;23.24;56.28
48862;BME280;34681;49.188;-0.374;2023-07-13T07:03:46;101674.84;;;23.29;56.27
48862;BME280;34681;49.188;-0.374;2023-07-13T07:06:20;101677.81;;;23.21;56.42
48862;BME280;34681;49.188;-0.374;2023-07-13T07:08:52;101681.25;;;23.23;56.78
48862;BME280;34681;49.188;-0.374;2023-07-13T07:11:21;101679.63;;;23.42;55.55
48862;BME280;34681;49.188;-0.374;2023-07-13T07:13:48;101683.00;;;23.31;56.06
48862;BME280;34681;49.188;-0.374;2023-07-13T07:16:13;101691.16;;;23.25;56.75
48862;BME280;34681;49.188;-0.374;2023-07-13T07:18:39;101698.72;;;23.38;56.10
48862;BME280;34681;49.188;-0.374;2023-07-13T07:21:04;101701.78;;;23.57;55.41
48862;BME280;34681;49.188;-0.374;2023-07-13T07:23:30;101702.22;;;23.53;55.57
48862;BME280;34681;49.188;-0.374;2023-07-13T07:25:55;101705.06;;;23.60;55.27
48862;BME280;34681;49.188;-0.374;2023-07-13T07:28:21;101710.44;;;23.62;55.24
48862;BME280;34681;49.188;-0.374;2023-07-13T07:30:47;101710.56;;;23.47;55.90
48862;BME280;34681;49.188;-0.374;2023-07-13T07:33:14;101717.13;;;23.74;54.84
48862;BME280;34681;49.188;-0.374;2023-07-13T07:35:39;101715.38;;;23.66;54.78
48862;BME280;34681;49.188;-0.374;2023-07-13T07:38:05;101719.06;;;23.73;54.70
48862;BME280;34681;49.188;-0.374;2023-07-13T07:40:30;101723.56;;;23.74;54.94
48862;BME280;34681;49.188;-0.374;2023-07-13T07:42:56;101721.88;;;23.80;55.03
48862;BME280;34681;49.188;-0.374;2023-07-13T07:45:22;101726.84;;;23.78;54.96
48862;BME280;34681;49.188;-0.374;2023-07-13T07:47:47;101724.06;;;23.85;55.00
48862;BME280;34681;49.188;-0.374;2023-07-13T07:50:13;101726.84;;;23.91;54.72
48862;BME280;34681;49.188;-0.374;2023-07-13T07:52:38;101724.75;;;24.00;54.23
48862;BME280;34681;49.188;-0.374;2023-07-13T07:55:05;101726.88;;;24.04;54.25
48862;BME280;34681;49.188;-0.374;2023-07-13T07:57:31;101730.97;;;24.02;54.24
48862;BME280;34681;49.188;-0.374;2023-07-13T07:59:57;101729.47;;;24.13;53.30
48862;BME280;34681;49.188;-0.374;2023-07-13T08:02:23;101738.28;;;24.03;53.46
48862;BME280;34681;49.188;-0.374;2023-07-13T08:04:49;101736.59;;;24.08;53.29
48862;BME280;34681;49.188;-0.374;2023-07-13T08:07:14;101737.22;;;24.10;52.91
48862;BME280;34681;49.188;-0.374;2023-07-13T08:09:40;101740.66;;;24.06;53.32
48862;BME280;34681;49.188;-0.374;2023-07-13T08:12:05;101738.53;;;24.08;53.24
48862;BME280;34681;49.188;-0.374;2023-07-13T08:14:31;101743.69;;;24.11;53.31
48862;BME280;34681;49.188;-0.374;2023-07-13T08:16:56;101739.78;;;24.05;53.85
48862;BME280;34681;49.188;-0.374;2023-07-13T08:19:24;101738.06;;;23.98;54.64
48862;BME280;34681;49.188;-0.374;2023-07-13T08:21:49;101745.38;;;23.92;55.14
48862;BME280;34681;49.188;-0.374;2023-07-13T08:24:15;101745.38;;;23.92;55.22
48862;BME280;34681;49.188;-0.374;2023-07-13T08:26:40;101734.16;;;23.86;55.57
48862;BME280;34681;49.188;-0.374;2023-07-13T08:29:06;101733.72;;;23.82;55.90
48862;BME280;34681;49.188;-0.374;2023-07-13T08:31:31;101739.50;;;23.80;55.93
48862;BME280;34681;49.188;-0.374;2023-07-13T08:33:56;101737.38;;;23.76;56.18
48862;BME280;34681;49.188;-0.374;2023-07-13T08:36:22;101730.72;;;23.90;55.92
48862;BME280;34681;49.188;-0.374;2023-07-13T08:38:47;101736.97;;;23.86;56.22
48862;BME280;34681;49.188;-0.374;2023-07-13T08:41:16;101731.81;;;23.96;56.46
48862;BME280;34681;49.188;-0.374;2023-07-13T08:43:45;101729.69;;;24.04;56.25
48862;BME280;34681;49.188;-0.374;2023-07-13T08:46:38;101737.66;;;24.01;56.50
48862;BME280;34681;49.188;-0.374;2023-07-13T08:49:11;101734.00;;;24.00;56.70
48862;BME280;34681;49.188;-0.374;2023-07-13T08:51:44;101734.66;;;24.22;55.85
48862;BME280;34681;49.188;-0.374;2023-07-13T08:54:32;101729.34;;;24.34;55.73
48862;BME280;34681;49.188;-0.374;2023-07-13T08:57:02;101736.19;;;24.25;56.31
48862;BME280;34681;49.188;-0.374;2023-07-13T08:59:35;101725.25;;;24.43;55.80
48862;BME280;34681;49.188;-0.374;2023-07-13T09:05:25;101734.28;;;24.72;54.79
48862;BME280;34681;49.188;-0.374;2023-07-13T09:10:50;101744.59;;;24.78;54.47
48862;BME280;34681;49.188;-0.374;2023-07-13T09:16:25;101741.81;;;24.84;54.16
48862;BME280;34681;49.188;-0.374;2023-07-13T09:18:52;101739.44;;;24.88;53.85
48862;BME280;34681;49.188;-0.374;2023-07-13T09:21:30;101731.25;;;25.00;53.55
48862;BME280;34681;49.188;-0.374;2023-07-13T09:24:03;101738.34;;;25.02;53.73
48862;BME280;34681;49.188;-0.374;2023-07-13T09:26:31;101737.91;;;25.05;53.67
48862;BME280;34681;49.188;-0.374;2023-07-13T09:29:09;101746.94;;;25.14;53.37
48862;BME280;34681;49.188;-0.374;2023-07-13T09:31:43;101742.88;;;25.16;53.45
48862;BME280;34681;49.188;-0.374;2023-07-13T09:34:12;101760.94;;;25.14;53.12
48862;BME280;34681;49.188;-0.374;2023-07-13T09:36:37;101754.94;;;25.17;52.98
48862;BME280;34681;49.188;-0.374;2023-07-13T09:44:28;101751.22;;;25.23;52.51
48862;BME280;34681;49.188;-0.374;2023-07-13T09:46:56;101759.00;;;25.21;52.63
48862;BME280;34681;49.188;-0.374;2023-07-13T09:49:27;101758.34;;;25.26;52.42
48862;BME280;34681;49.188;-0.374;2023-07-13T09:52:03;101760.22;;;25.38;52.50
48862;BME280;34681;49.188;-0.374;2023-07-13T09:54:28;101761.53;;;25.36;52.58
48862;BME280;34681;49.188;-0.374;2023-07-13T09:56:59;101758.50;;;25.44;52.61
48862;BME280;34681;49.188;-0.374;2023-07-13T09:59:30;101749.41;;;25.55;52.47
48862;BME280;34681;49.188;-0.374;2023-07-13T10:01:57;101747.06;;;25.52;52.32
48862;BME280;34681;49.188;-0.374;2023-07-13T10:04:29;101752.19;;;25.55;52.39
48862;BME280;34681;49.188;-0.374;2023-07-13T10:07:07;101755.84;;;25.62;52.20
48862;BME280;34681;49.188;-0.374;2023-07-13T10:09:32;101755.47;;;25.52;52.29
48862;BME280;34681;49.188;-0.374;2023-07-13T10:11:58;101746.59;;;25.55;52.14
48862;BME280;34681;49.188;-0.374;2023-07-13T10:14:23;101750.69;;;25.59;52.15
48862;BME280;34681;49.188;-0.374;2023-07-13T10:16:55;101749.38;;;25.62;51.92
48862;BME280;34681;49.188;-0.374;2023-07-13T10:19:25;101750.00;;;25.64;52.02
48862;BME280;34681;49.188;-0.374;2023-07-13T10:21:59;101751.94;;;25.70;51.88
48862;BME280;34681;49.188;-0.374;2023-07-13T10:24:27;101756.91;;;25.68;52.10
48862;BME280;34681;49.188;-0.374;2023-07-13T10:27:01;101756.66;;;25.69;51.88
48862;BME280;34681;49.188;-0.374;2023-07-13T10:29:34;101761.19;;;25.70;52.01
48862;BME280;34681;49.188;-0.374;2023-07-13T10:32:01;101758.38;;;25.70;52.00
48862;BME280;34681;49.188;-0.374;2023-07-13T10:34:26;101762.09;;;25.71;51.81
48862;BME280;34681;49.188;-0.374;2023-07-13T10:36:52;101758.38;;;25.70;51.75
48862;BME280;34681;49.188;-0.374;2023-07-13T10:39:25;101756.91;;;25.74;51.67
48862;BME280;34681;49.188;-0.374;2023-07-13T10:41:58;101756.06;;;25.74;51.61
48862;BME280;34681;49.188;-0.374;2023-07-13T10:44:28;101760.78;;;25.67;51.57
48862;BME280;34681;49.188;-0.374;2023-07-13T10:47:14;101768.97;;;25.75;51.42
48862;BME280;34681;49.188;-0.374;2023-07-13T10:49:40;101761.22;;;25.64;51.48
48862;BME280;34681;49.188;-0.374;2023-07-13T10:58:00;101756.53;;;25.58;51.39
48862;BME280;34681;49.188;-0.374;2023-07-13T11:00:29;101745.72;;;25.55;51.14
48862;BME280;34681;49.188;-0.374;2023-07-13T11:02:59;101734.75;;;25.53;51.26
48862;BME280;34681;49.188;-0.374;2023-07-13T11:05:33;101751.53;;;25.60;51.21
48862;BME280;34681;49.188;-0.374;2023-07-13T11:10:50;101755.44;;;25.59;51.20
48862;BME280;34681;49.188;-0.374;2023-07-13T11:18:45;101747.88;;;25.66;51.19
48862;BME280;34681;49.188;-0.374;2023-07-13T11:21:22;101759.28;;;25.71;50.99
48862;BME280;34681;49.188;-0.374;2023-07-13T11:24:14;101753.25;;;25.67;50.96
48862;BME280;34681;49.188;-0.374;2023-07-13T11:29:34;101752.34;;;25.80;50.62
48862;BME280;34681;49.188;-0.374;2023-07-13T11:32:22;101744.16;;;25.79;50.69
48862;BME280;34681;49.188;-0.374;2023-07-13T11:34:48;101743.31;;;25.71;50.58
48862;BME280;34681;49.188;-0.374;2023-07-13T11:37:17;101748.50;;;25.74;50.26
48862;BME280;34681;49.188;-0.374;2023-07-13T11:39:44;101750.22;;;25.75;50.33
48862;BME280;34681;49.188;-0.374;2023-07-13T11:42:16;101733.16;;;25.77;49.93
48862;BME280;34681;49.188;-0.374;2023-07-13T11:44:47;101735.56;;;25.73;49.71
48862;BME280;34681;49.188;-0.374;2023-07-13T11:47:21;101743.94;;;25.80;49.60
48862;BME280;34681;49.188;-0.374;2023-07-13T11:49:53;101740.25;;;25.80;49.83
48862;BME280;34681;49.188;-0.374;2023-07-13T11:52:31;101736.81;;;25.84;49.32
48862;BME280;34681;49.188;-0.374;2023-07-13T11:55:00;101734.66;;;25.80;49.39
48862;BME280;34681;49.188;-0.374;2023-07-13T11:57:29;101734.44;;;25.81;49.47
48862;BME280;34681;49.188;-0.374;2023-07-13T12:00:13;101738.28;;;25.87;49.06
48862;BME280;34681;49.188;-0.374;2023-07-13T12:02:45;101739.19;;;25.81;49.23
48862;BME280;34681;49.188;-0.374;2023-07-13T12:05:13;101737.69;;;25.78;49.19
48862;BME280;34681;49.188;-0.374;2023-07-13T12:07:39;101749.59;;;25.73;48.98
48862;BME280;34681;49.188;-0.374;2023-07-13T12:12:53;101740.09;;;25.74;48.77
48862;BME280;34681;49.188;-0.374;2023-07-13T12:15:20;101740.94;;;25.68;48.68
48862;BME280;34681;49.188;-0.374;2023-07-13T12:17:47;101737.06;;;25.69;48.64
48862;BME280;34681;49.188;-0.374;2023-07-13T12:20:35;101739.19;;;25.81;48.24
48862;BME280;34681;49.188;-0.374;2023-07-13T12:23:05;101729.31;;;25.71;48.22
48862;BME280;34681;49.188;-0.374;2023-07-13T12:25:31;101732.31;;;25.70;48.26
48862;BME280;34681;49.188;-0.374;2023-07-13T12:27:57;101728.88;;;25.74;48.04
48862;BME280;34681;49.188;-0.374;2023-07-13T12:30:32;101728.19;;;25.79;47.85
48862;BME280;34681;49.188;-0.374;2023-07-13T12:33:11;101714.19;;;25.79;47.87
48862;BME280;34681;49.188;-0.374;2023-07-13T12:35:55;101712.84;;;25.82;47.69
48862;BME280;34681;49.188;-0.374;2023-07-13T12:38:21;101711.84;;;25.69;47.85
48862;BME280;34681;49.188;-0.374;2023-07-13T12:40:50;101713.78;;;25.75;47.57
48862;BME280;34681;49.188;-0.374;2023-07-13T12:43:17;101717.25;;;25.71;47.61
48862;BME280;34681;49.188;-0.374;2023-07-13T12:48:21;101718.28;;;25.70;47.62
48862;BME280;34681;49.188;-0.374;2023-07-13T12:50:48;101713.56;;;25.70;47.35
48862;BME280;34681;49.188;-0.374;2023-07-13T12:53:20;101715.97;;;25.73;47.18
48862;BME280;34681;49.188;-0.374;2023-07-13T12:55:55;101717.66;;;25.74;47.02
48862;BME280;34681;49.188;-0.374;2023-07-13T12:58:29;101710.75;;;25.70;46.97
48862;BME280;34681;49.188;-0.374;2023-07-13T13:00:57;101705.13;;;25.70;46.85
48862;BME280;34681;49.188;-0.374;2023-07-13T13:03:35;101696.09;;;25.75;46.86
48862;BME280;34681;49.188;-0.374;2023-07-13T13:06:18;101708.59;;;25.72;46.76
48862;BME280;34681;49.188;-0.374;2023-07-13T13:08:46;101709.03;;;25.69;46.87
48862;BME280;34681;49.188;-0.374;2023-07-13T13:11:16;101703.88;;;25.66;46.38
48862;BME280;34681;49.188;-0.374;2023-07-13T13:13:42;101715.09;;;25.66;46.18
48862;BME280;34681;49.188;-0.374;2023-07-13T13:16:14;101704.28;;;25.70;46.09
48862;BME280;34681;49.188;-0.374;2023-07-13T13:18:42;101721.56;;;25.67;46.24
48862;BME280;34681;49.188;-0.374;2023-07-13T13:21:09;101718.75;;;25.67;46.07
48862;BME280;34681;49.188;-0.374;2023-07-13T13:23:36;101720.91;;;25.65;45.89
48862;BME280;34681;49.188;-0.374;2023-07-13T13:26:03;101715.94;;;25.67;45.87